Time;durP1;ratioP1;P1;durP2;ratioP2;P2;SDS_P1;SDS_P2;PMS_P1;PMS_P2;Temp;Humidity;BMP_temperature;BMP_pressure;BME280_temperature;BME280_humidity;BME280_pressure;Samples;Min_cycle;Max_cycle;Signal;HPM_P1;HPM_P2
2023/12/02 00:01:51;;;;;;;34.97;19.67;;;;;;;;;;5093417;28;20040;-67
2023/12/02 00:04:17;;;;;;;37.78;19.92;;;;;;;;;;5092961;28;20028;-67
2023/12/02 00:06:43;;;;;;;39.20;20.75;;;;;;;;;;5093506;28;20383;-67
2023/12/02 00:09:11;;;;;;;40.28;21.90;;;;;;;;;;5092974;28;20044;-67
2023/12/02 00:11:38;;;;;;;38.67;20.23;;;;;;;;;;5091711;28;20122;-67
2023/12/02 00:14:04;;;;;;;38.10;20.33;;;;;;;;;;5093107;28;20063;-67
2023/12/02 00:16:30;;;;;;;37.97;19.67;;;;;;;;;;5092948;28;20515;-67
2023/12/02 00:18:56;;;;;;;38.08;19.77;;;;;;;;;;5080378;28;20040;-67
2023/12/02 00:21:23;;;;;;;37.88;20.02;;;;;;;;;;5072695;28;20540;-67
2023/12/02 00:23:49;;;;;;;37.28;19.38;;;;;;;;;;5072749;28;20044;-67
2023/12/02 00:26:15;;;;;;;37.63;20.38;;;;;;;;;;5083068;28;20119;-67
2023/12/02 00:28:41;;;;;;;37.80;20.55;;;;;;;;;;5092888;28;20040;-67
2023/12/02 00:31:07;;;;;;;37.25;20.27;;;;;;;;;;5092592;28;20044;-67
2023/12/02 00:33:33;;;;;;;36.72;19.23;;;;;;;;;;5092550;28;20043;-67
2023/12/02 00:36:00;;;;;;;39.15;20.88;;;;;;;;;;5091656;28;20068;-67
2023/12/02 00:38:26;;;;;;;37.92;20.48;;;;;;;;;;5092351;28;20058;-67
2023/12/02 00:40:52;;;;;;;33.70;19.05;;;;;;;;;;5092207;28;20729;-67
2023/12/02 00:43:18;;;;;;;35.38;19.35;;;;;;;;;;5092398;28;20455;-67
2023/12/02 00:45:44;;;;;;;36.70;18.80;;;;;;;;;;5092395;28;20040;-67
2023/12/02 00:48:10;;;;;;;40.53;20.30;;;;;;;;;;5092093;28;20391;-67
2023/12/02 00:50:36;;;;;;;38.05;20.58;;;;;;;;;;5092520;28;20044;-67
2023/12/02 00:53:02;;;;;;;38.75;20.27;;;;;;;;;;5092439;28;20474;-67
2023/12/02 00:55:28;;;;;;;35.25;18.33;;;;;;;;;;5091868;28;20067;-67
2023/12/02 00:57:54;;;;;;;34.63;18.45;;;;;;;;;;5091866;28;20086;-67
2023/12/02 01:00:20;;;;;;;37.90;19.98;;;;;;;;;;5092418;28;20149;-67
2023/12/02 01:02:46;;;;;;;38.47;19.15;;;;;;;;;;5092041;28;20463;-67
2023/12/02 01:05:13;;;;;;;37.53;20.10;;;;;;;;;;5092307;28;20493;-67
2023/12/02 01:07:39;;;;;;;37.08;21.40;;;;;;;;;;5091739;28;20059;-67
2023/12/02 01:10:06;;;;;;;36.15;20.02;;;;;;;;;;5091706;28;20174;-67
2023/12/02 01:12:32;;;;;;;38.33;20.50;;;;;;;;;;5092052;28;20040;-66
2023/12/02 01:14:58;;;;;;;42.67;21.80;;;;;;;;;;5092149;28;20128;-66
2023/12/02 01:17:24;;;;;;;39.00;21.27;;;;;;;;;;5091504;28;20080;-67
2023/12/02 01:19:50;;;;;;;39.35;21.15;;;;;;;;;;5071757;28;20040;-67
2023/12/02 01:22:16;;;;;;;40.28;20.58;;;;;;;;;;5071576;28;20418;-67
2023/12/02 01:24:42;;;;;;;37.97;20.45;;;;;;;;;;5071401;28;20036;-67
2023/12/02 01:27:08;;;;;;;34.30;19.23;;;;;;;;;;5090038;28;20394;-67
2023/12/02 01:29:34;;;;;;;39.75;20.25;;;;;;;;;;5091820;28;20075;-67
2023/12/02 01:32:00;;;;;;;36.33;20.17;;;;;;;;;;5091532;28;20485;-67
2023/12/02 01:34:26;;;;;;;35.55;19.08;;;;;;;;;;5091500;28;20047;-67
2023/12/02 01:36:52;;;;;;;36.38;19.08;;;;;;;;;;5091703;28;20046;-67
2023/12/02 01:39:19;;;;;;;35.53;18.88;;;;;;;;;;5091276;28;20031;-67
2023/12/02 01:41:45;;;;;;;35.33;18.88;;;;;;;;;;5091575;28;20036;-67
2023/12/02 01:44:12;;;;;;;32.20;18.30;;;;;;;;;;5091673;28;20512;-67
2023/12/02 01:46:38;;;;;;;39.33;19.70;;;;;;;;;;5091226;28;20040;-67
2023/12/02 01:49:05;;;;;;;36.67;19.00;;;;;;;;;;5089962;28;20052;-67
2023/12/02 01:51:31;;;;;;;33.80;18.48;;;;;;;;;;5091595;28;20044;-67
2023/12/02 01:53:57;;;;;;;33.22;18.55;;;;;;;;;;5091299;28;20036;-67
2023/12/02 01:56:23;;;;;;;35.70;20.02;;;;;;;;;;5091243;28;20130;-67
2023/12/02 01:58:49;;;;;;;32.13;17.60;;;;;;;;;;5091285;28;20127;-67
2023/12/02 02:01:16;;;;;;;35.33;19.13;;;;;;;;;;5090805;28;20039;-67
2023/12/02 02:03:42;;;;;;;34.83;18.50;;;;;;;;;;5091255;28;20040;-67
2023/12/02 02:06:11;;;;;;;34.60;17.98;;;;;;;;;;5091433;28;20043;-67
2023/12/02 02:08:38;;;;;;;36.35;18.73;;;;;;;;;;5090952;28;20036;-67
2023/12/02 02:11:05;;;;;;;34.45;18.40;;;;;;;;;;5091364;28;20040;-67
2023/12/02 02:13:31;;;;;;;33.60;17.40;;;;;;;;;;5091255;28;20032;-67
2023/12/02 02:15:57;;;;;;;38.28;19.00;;;;;;;;;;5089532;28;20544;-67
2023/12/02 02:18:23;;;;;;;32.17;17.75;;;;;;;;;;5082707;28;20040;-67
2023/12/02 02:20:50;;;;;;;34.53;17.85;;;;;;;;;;5075137;28;20037;-67
2023/12/02 02:23:21;;;;;;;36.08;18.77;;;;;;;;;;5074589;28;20041;-67
2023/12/02 02:25:53;;;;;;;31.33;17.20;;;;;;;;;;5082239;28;20039;-67
2023/12/02 02:28:23;;;;;;;31.90;17.40;;;;;;;;;;5095166;28;20044;-67
2023/12/02 02:30:49;;;;;;;34.00;17.95;;;;;;;;;;5094792;28;20050;-67
2023/12/02 02:33:16;;;;;;;33.08;18.08;;;;;;;;;;5095192;28;20379;-67
2023/12/02 02:35:42;;;;;;;33.60;17.42;;;;;;;;;;5094983;28;20039;-67
2023/12/02 02:38:09;;;;;;;32.35;18.00;;;;;;;;;;5094528;28;20036;-67
2023/12/02 02:40:35;;;;;;;36.85;18.42;;;;;;;;;;5095030;28;20040;-67
2023/12/02 02:43:01;;;;;;;31.75;17.95;;;;;;;;;;5095026;28;20509;-67
2023/12/02 02:45:27;;;;;;;35.35;18.52;;;;;;;;;;5094887;28;20040;-67
2023/12/02 02:47:53;;;;;;;33.17;17.08;;;;;;;;;;5094588;28;20036;-67
2023/12/02 02:50:19;;;;;;;30.48;16.75;;;;;;;;;;5094866;28;20505;-67
2023/12/02 02:52:46;;;;;;;31.10;16.48;;;;;;;;;;5094673;28;20039;-67
2023/12/02 02:55:13;;;;;;;32.28;17.20;;;;;;;;;;5094377;28;20486;-67
2023/12/02 02:57:39;;;;;;;34.58;17.63;;;;;;;;;;5094237;28;20137;-67
2023/12/02 03:00:09;;;;;;;32.08;15.82;;;;;;;;;;5094773;28;20555;-67
2023/12/02 03:02:35;;;;;;;29.58;16.88;;;;;;;;;;5094560;28;20703;-67
2023/12/02 03:05:01;;;;;;;31.60;17.58;;;;;;;;;;5094439;28;20081;-67
2023/12/02 03:07:29;;;;;;;29.65;17.15;;;;;;;;;;5094270;28;20044;-67
2023/12/02 03:09:56;;;;;;;32.38;17.85;;;;;;;;;;5094011;28;20043;-67
2023/12/02 03:12:23;;;;;;;31.08;16.77;;;;;;;;;;5094174;28;20165;-67
2023/12/02 03:14:49;;;;;;;33.70;16.98;;;;;;;;;;5094180;28;20090;-67
2023/12/02 03:17:15;;;;;;;29.55;16.40;;;;;;;;;;5093849;28;20098;-67
2023/12/02 03:19:41;;;;;;;32.08;17.60;;;;;;;;;;5075298;28;20068;-67
2023/12/02 03:22:07;;;;;;;29.30;16.42;;;;;;;;;;5072619;28;20040;-67
2023/12/02 03:24:33;;;;;;;30.88;16.35;;;;;;;;;;5073607;28;20459;-67
2023/12/02 03:26:59;;;;;;;30.80;17.00;;;;;;;;;;5091082;28;20039;-67
2023/12/02 03:29:25;;;;;;;32.42;17.35;;;;;;;;;;5093488;28;20047;-67
2023/12/02 03:31:51;;;;;;;30.58;17.40;;;;;;;;;;5093412;28;20043;-67
2023/12/02 03:34:18;;;;;;;32.00;17.75;;;;;;;;;;5093660;28;20075;-67
2023/12/02 03:36:44;;;;;;;31.65;17.23;;;;;;;;;;5093783;28;20044;-67
2023/12/02 03:39:12;;;;;;;34.25;18.27;;;;;;;;;;5093208;28;20047;-67
2023/12/02 03:41:38;;;;;;;32.45;17.83;;;;;;;;;;5093928;28;20738;-67
2023/12/02 03:44:04;;;;;;;31.83;16.77;;;;;;;;;;5093720;28;20032;-67
2023/12/02 03:46:30;;;;;;;31.58;17.13;;;;;;;;;;5091974;28;20044;-67
2023/12/02 03:48:57;;;;;;;32.10;18.52;;;;;;;;;;5093448;28;20032;-67
2023/12/02 03:51:23;;;;;;;31.10;16.75;;;;;;;;;;5093694;28;20040;-67
2023/12/02 03:53:50;;;;;;;32.00;17.73;;;;;;;;;;5092983;28;20159;-67
2023/12/02 03:56:16;;;;;;;32.03;17.08;;;;;;;;;;5093450;28;20426;-67
2023/12/02 03:58:42;;;;;;;32.00;17.35;;;;;;;;;;5093341;28;20052;-67
2023/12/02 04:01:08;;;;;;;36.38;19.13;;;;;;;;;;5091872;28;20072;-67
2023/12/02 04:03:35;;;;;;;33.67;17.50;;;;;;;;;;5093330;28;20040;-67
2023/12/02 04:06:01;;;;;;;34.67;18.00;;;;;;;;;;5093365;28;20093;-67
2023/12/02 04:08:27;;;;;;;33.33;17.98;;;;;;;;;;5092987;28;20555;-67
2023/12/02 04:10:53;;;;;;;33.75;18.35;;;;;;;;;;5093000;28;20040;-67
2023/12/02 04:13:20;;;;;;;36.97;19.15;;;;;;;;;;5093102;28;20051;-67
2023/12/02 04:15:46;;;;;;;34.15;18.23;;;;;;;;;;5092617;28;20498;-67
2023/12/02 04:18:12;;;;;;;39.38;19.15;;;;;;;;;;5086824;28;20041;-67
2023/12/02 04:20:38;;;;;;;36.17;18.83;;;;;;;;;;5071600;28;20041;-67
2023/12/02 04:23:04;;;;;;;37.35;18.58;;;;;;;;;;5072532;28;20033;-67
2023/12/02 04:25:31;;;;;;;35.63;18.20;;;;;;;;;;5077185;28;20036;-67
2023/12/02 04:27:57;;;;;;;34.97;18.27;;;;;;;;;;5092765;28;20047;-67
2023/12/02 04:30:23;;;;;;;35.55;18.17;;;;;;;;;;5092492;28;20047;-67
2023/12/02 04:32:49;;;;;;;37.13;19.52;;;;;;;;;;5092774;28;20121;-67
2023/12/02 04:35:15;;;;;;;35.20;18.88;;;;;;;;;;5089584;28;20085;-67
2023/12/02 04:37:41;;;;;;;35.10;18.52;;;;;;;;;;5090682;28;20040;-67
2023/12/02 04:40:11;;;;;;;37.65;19.60;;;;;;;;;;5091167;28;20051;-67
2023/12/02 04:42:37;;;;;;;37.38;20.02;;;;;;;;;;5090433;28;20418;-67
2023/12/02 04:45:04;;;;;;;33.80;18.33;;;;;;;;;;5090593;28;20367;-67
2023/12/02 04:47:30;;;;;;;33.85;18.83;;;;;;;;;;5090891;28;20062;-67
2023/12/02 04:49:56;;;;;;;36.70;18.80;;;;;;;;;;5091179;28;20039;-67
2023/12/02 04:52:22;;;;;;;34.05;18.13;;;;;;;;;;5090491;28;20050;-67
2023/12/02 04:54:48;;;;;;;34.50;18.10;;;;;;;;;;5090995;28;20044;-67
2023/12/02 04:57:14;;;;;;;35.72;20.02;;;;;;;;;;5090340;28;20064;-67
2023/12/02 04:59:40;;;;;;;39.63;20.70;;;;;;;;;;5090164;28;20452;-67
2023/12/02 05:02:07;;;;;;;36.15;19.02;;;;;;;;;;5090470;28;20051;-67
2023/12/02 05:04:33;;;;;;;37.38;19.80;;;;;;;;;;5090564;28;20043;-67
2023/12/02 05:06:59;;;;;;;35.17;18.38;;;;;;;;;;5090268;28;20035;-67
2023/12/02 05:09:25;;;;;;;39.05;20.08;;;;;;;;;;5090825;28;20097;-67
2023/12/02 05:11:52;;;;;;;38.03;19.45;;;;;;;;;;5090593;28;20398;-67
2023/12/02 05:14:18;;;;;;;37.05;18.67;;;;;;;;;;5090255;28;20047;-67
2023/12/02 05:16:44;;;;;;;38.17;20.80;;;;;;;;;;5090372;28;20098;-67
2023/12/02 05:19:10;;;;;;;38.20;19.25;;;;;;;;;;5076004;28;20117;-67
2023/12/02 05:21:37;;;;;;;39.45;19.50;;;;;;;;;;5069835;28;20045;-67
2023/12/02 05:24:03;;;;;;;41.83;20.13;;;;;;;;;;5069936;28;20491;-67
2023/12/02 05:26:29;;;;;;;43.15;20.52;;;;;;;;;;5082842;28;20047;-67
2023/12/02 05:28:55;;;;;;;39.13;20.98;;;;;;;;;;5089925;28;20398;-67
2023/12/02 05:31:21;;;;;;;39.40;19.52;;;;;;;;;;5089958;28;20032;-67
2023/12/02 05:33:47;;;;;;;39.28;19.92;;;;;;;;;;5088590;28;20070;-67
2023/12/02 05:36:14;;;;;;;39.50;20.05;;;;;;;;;;5089643;28;20032;-67
2023/12/02 05:38:40;;;;;;;36.58;20.05;;;;;;;;;;5089884;28;20042;-67
2023/12/02 05:41:06;;;;;;;36.65;19.08;;;;;;;;;;5089941;28;20569;-67
2023/12/02 05:43:33;;;;;;;34.60;18.63;;;;;;;;;;5089640;28;20079;-67
2023/12/02 05:45:58;;;;;;;37.72;20.40;;;;;;;;;;5089801;28;20055;-67
2023/12/02 05:48:24;;;;;;;36.70;18.70;;;;;;;;;;5089934;28;20206;-67
2023/12/02 05:50:51;;;;;;;36.65;19.98;;;;;;;;;;5089525;28;20379;-67
2023/12/02 05:53:17;;;;;;;38.03;19.95;;;;;;;;;;5089805;28;20070;-67
2023/12/02 05:55:43;;;;;;;41.38;20.80;;;;;;;;;;5090019;28;20550;-67
2023/12/02 05:58:09;;;;;;;38.67;19.75;;;;;;;;;;5089051;28;20147;-67
2023/12/02 06:00:36;;;;;;;40.53;20.63;;;;;;;;;;5089890;28;20536;-67
2023/12/02 06:03:03;;;;;;;42.17;20.70;;;;;;;;;;5088216;28;20044;-67
2023/12/02 06:05:29;;;;;;;38.67;19.83;;;;;;;;;;5088056;28;20059;-67
2023/12/02 06:07:55;;;;;;;41.55;20.33;;;;;;;;;;5089732;28;20040;-67
2023/12/02 06:10:21;;;;;;;36.65;19.42;;;;;;;;;;5089804;28;20445;-67
2023/12/02 06:12:47;;;;;;;44.30;21.67;;;;;;;;;;5089118;28;20149;-67
2023/12/02 06:15:13;;;;;;;42.60;20.52;;;;;;;;;;5089521;28;20076;-67
2023/12/02 06:17:40;;;;;;;40.53;20.90;;;;;;;;;;5087938;28;20086;-67
2023/12/02 06:20:06;;;;;;;39.35;21.73;;;;;;;;;;5069277;28;20086;-67
2023/12/02 06:22:35;;;;;;;41.42;21.35;;;;;;;;;;5069319;28;20037;-67
2023/12/02 06:25:02;;;;;;;42.17;21.90;;;;;;;;;;5068479;28;20071;-67
2023/12/02 06:27:28;;;;;;;42.00;21.65;;;;;;;;;;5089464;28;20039;-67
2023/12/02 06:29:54;;;;;;;43.72;20.90;;;;;;;;;;5089595;28;20048;-67
2023/12/02 06:32:20;;;;;;;39.83;21.02;;;;;;;;;;5089494;28;20501;-67
2023/12/02 06:34:46;;;;;;;41.33;20.08;;;;;;;;;;5088009;28;20052;-67
2023/12/02 06:37:12;;;;;;;43.45;21.48;;;;;;;;;;5087619;28;20503;-67
2023/12/02 06:39:38;;;;;;;39.95;19.77;;;;;;;;;;5089187;28;20076;-67
2023/12/02 06:42:04;;;;;;;41.65;19.88;;;;;;;;;;5089515;28;20119;-67
2023/12/02 06:44:30;;;;;;;41.10;21.13;;;;;;;;;;5089074;28;20051;-67
2023/12/02 06:46:56;;;;;;;41.28;21.30;;;;;;;;;;5089183;28;20402;-67
2023/12/02 06:49:22;;;;;;;42.60;20.65;;;;;;;;;;5089266;28;20040;-67
2023/12/02 06:51:48;;;;;;;38.75;19.83;;;;;;;;;;5089024;28;20047;-67
2023/12/02 06:54:14;;;;;;;38.22;19.17;;;;;;;;;;5089412;28;20044;-67
2023/12/02 06:56:41;;;;;;;39.38;19.38;;;;;;;;;;5089012;28;20086;-67
2023/12/02 06:59:07;;;;;;;41.22;20.73;;;;;;;;;;5088905;28;20044;-67
2023/12/02 07:01:33;;;;;;;44.80;20.90;;;;;;;;;;5087804;28;20039;-67
2023/12/02 07:04:00;;;;;;;38.35;18.50;;;;;;;;;;5089292;28;20039;-67
2023/12/02 07:06:27;;;;;;;37.47;18.48;;;;;;;;;;5092452;28;20062;-67
2023/12/02 07:08:54;;;;;;;39.90;19.60;;;;;;;;;;5092830;28;20035;-67
2023/12/02 07:11:20;;;;;;;41.22;20.88;;;;;;;;;;5092869;28;20043;-67
2023/12/02 07:13:46;;;;;;;42.13;19.60;;;;;;;;;;5091141;28;20044;-67
2023/12/02 07:16:13;;;;;;;39.25;19.50;;;;;;;;;;5092172;28;20047;-67
2023/12/02 07:18:39;;;;;;;43.08;21.08;;;;;;;;;;5082388;28;20479;-67
2023/12/02 07:21:06;;;;;;;41.65;20.17;;;;;;;;;;5072128;28;20124;-67
2023/12/02 07:23:32;;;;;;;45.78;20.55;;;;;;;;;;5072017;28;20097;-67
2023/12/02 07:25:58;;;;;;;41.83;19.80;;;;;;;;;;5080901;28;20051;-67
2023/12/02 07:28:25;;;;;;;41.47;20.33;;;;;;;;;;5091706;28;20036;-67
2023/12/02 07:30:51;;;;;;;39.83;19.80;;;;;;;;;;5092492;28;20047;-67
2023/12/02 07:33:19;;;;;;;43.30;20.13;;;;;;;;;;5092158;28;20075;-67
2023/12/02 07:35:45;;;;;;;44.03;19.92;;;;;;;;;;5091838;28;20051;-67
2023/12/02 07:38:11;;;;;;;44.35;20.55;;;;;;;;;;5092131;28;20125;-67
2023/12/02 07:40:37;;;;;;;40.38;21.10;;;;;;;;;;5092264;28;20040;-67
2023/12/02 07:43:03;;;;;;;45.63;22.35;;;;;;;;;;5091800;28;20457;-67
2023/12/02 07:45:29;;;;;;;49.08;23.48;;;;;;;;;;5092134;28;20048;-67
2023/12/02 07:47:56;;;;;;;45.95;21.27;;;;;;;;;;5091770;28;20044;-67
2023/12/02 07:50:22;;;;;;;49.50;21.60;;;;;;;;;;5091740;28;20059;-67
2023/12/02 07:52:48;;;;;;;45.30;21.10;;;;;;;;;;5091785;28;20040;-67
2023/12/02 07:55:14;;;;;;;49.03;21.92;;;;;;;;;;5092059;28;20043;-67
2023/12/02 07:57:40;;;;;;;44.55;21.40;;;;;;;;;;5091125;28;20048;-67
2023/12/02 08:00:07;;;;;;;50.63;23.80;;;;;;;;;;5091898;28;20346;-67
2023/12/02 08:02:34;;;;;;;43.53;22.27;;;;;;;;;;5091880;28;20476;-67
2023/12/02 08:04:59;;;;;;;45.55;22.42;;;;;;;;;;5091372;28;20040;-67
2023/12/02 08:07:26;;;;;;;44.15;20.83;;;;;;;;;;5091516;28;20048;-67
2023/12/02 08:09:52;;;;;;;47.17;21.95;;;;;;;;;;5091495;28;20044;-67
2023/12/02 08:12:18;;;;;;;47.85;22.52;;;;;;;;;;5091326;28;20119;-67
2023/12/02 08:14:44;;;;;;;44.13;21.88;;;;;;;;;;5091230;28;20046;-67
2023/12/02 08:17:10;;;;;;;49.33;22.85;;;;;;;;;;5091505;28;20260;-67
2023/12/02 08:19:36;;;;;;;43.17;21.77;;;;;;;;;;5073329;28;20051;-67
2023/12/02 08:22:03;;;;;;;46.42;22.63;;;;;;;;;;5071376;28;20056;-67
2023/12/02 08:24:32;;;;;;;43.55;21.55;;;;;;;;;;5071155;28;20169;-67
2023/12/02 08:26:58;;;;;;;43.95;21.27;;;;;;;;;;5087726;28;20123;-67
2023/12/02 08:29:24;;;;;;;44.80;22.85;;;;;;;;;;5091196;28;20051;-67
2023/12/02 08:31:51;;;;;;;50.92;23.20;;;;;;;;;;5091316;28;20040;-67
2023/12/02 08:34:17;;;;;;;48.88;22.10;;;;;;;;;;5090880;28;20071;-67
2023/12/02 08:36:43;;;;;;;46.97;22.65;;;;;;;;;;5072906;28;20510;-67
2023/12/02 08:39:09;;;;;;;45.60;21.63;;;;;;;;;;5090747;28;20040;-67
2023/12/02 08:41:36;;;;;;;47.13;23.08;;;;;;;;;;5090725;28;20036;-67
2023/12/02 08:44:02;;;;;;;44.78;21.50;;;;;;;;;;5089416;28;20040;-67
2023/12/02 08:46:28;;;;;;;44.28;21.73;;;;;;;;;;5090754;28;20040;-67
2023/12/02 08:48:54;;;;;;;43.75;21.80;;;;;;;;;;5090495;28;20055;-67
2023/12/02 08:51:21;;;;;;;43.60;22.67;;;;;;;;;;5090941;28;20478;-67
2023/12/02 08:53:49;;;;;;;42.60;21.08;;;;;;;;;;5090652;28;20117;-67
2023/12/02 08:56:15;;;;;;;46.78;22.55;;;;;;;;;;5089083;28;20078;-67
2023/12/02 08:58:41;;;;;;;47.75;22.65;;;;;;;;;;5090578;28;20051;-67
2023/12/02 09:01:07;;;;;;;49.58;23.05;;;;;;;;;;5091011;28;20032;-67
2023/12/02 09:03:33;;;;;;;46.50;22.17;;;;;;;;;;5089985;28;20044;-67
2023/12/02 09:05:59;;;;;;;52.92;23.50;;;;;;;;;;5090631;28;20093;-67
2023/12/02 09:08:25;;;;;;;46.75;22.65;;;;;;;;;;5090489;28;20433;-67
2023/12/02 09:10:52;;;;;;;42.40;20.92;;;;;;;;;;5090230;28;20047;-67
2023/12/02 09:13:24;;;;;;;47.28;21.58;;;;;;;;;;5090226;28;20047;-67
2023/12/02 09:15:50;;;;;;;43.35;21.55;;;;;;;;;;5090514;28;20538;-67
2023/12/02 09:18:19;;;;;;;49.67;23.08;;;;;;;;;;5083264;28;20143;-67
2023/12/02 09:20:47;;;;;;;49.17;23.80;;;;;;;;;;5070159;28;20050;-67
2023/12/02 09:23:17;;;;;;;44.47;21.10;;;;;;;;;;5070105;28;20040;-67
2023/12/02 09:25:44;;;;;;;47.78;22.73;;;;;;;;;;5075943;28;20063;-67
2023/12/02 09:28:17;;;;;;;45.60;21.35;;;;;;;;;;5089766;28;20122;-67
2023/12/02 09:30:56;;;;;;;42.25;20.00;;;;;;;;;;5090037;28;20032;-67
2023/12/02 09:33:22;;;;;;;47.42;21.58;;;;;;;;;;5089952;28;20039;-67
2023/12/02 09:35:58;;;;;;;45.90;21.02;;;;;;;;;;5090133;28;20120;-67
2023/12/02 09:38:25;;;;;;;46.95;22.17;;;;;;;;;;5089942;28;20094;-67
2023/12/02 09:41:06;;;;;;;45.65;22.73;;;;;;;;;;5088103;28;20135;-67
2023/12/02 09:43:45;;;;;;;45.38;21.70;;;;;;;;;;5089977;28;20040;-67
2023/12/02 09:46:32;;;;;;;48.10;20.90;;;;;;;;;;5090061;28;20036;-67
2023/12/02 09:49:22;;;;;;;43.72;21.50;;;;;;;;;;5089750;28;20128;-67
2023/12/02 09:51:57;;;;;;;51.13;23.73;;;;;;;;;;5090011;28;20044;-67
2023/12/02 09:54:36;;;;;;;47.28;21.10;;;;;;;;;;5089884;28;20039;-67
2023/12/02 09:57:11;;;;;;;45.05;22.25;;;;;;;;;;5089038;28;20127;-67
2023/12/02 09:59:43;;;;;;;48.17;21.98;;;;;;;;;;5089828;28;20076;-67
2023/12/02 10:02:19;;;;;;;46.70;21.92;;;;;;;;;;5089503;28;20056;-67
2023/12/02 10:04:51;;;;;;;46.25;21.88;;;;;;;;;;5089447;28;20475;-67
2023/12/02 10:07:34;;;;;;;47.13;21.60;;;;;;;;;;5089815;28;20075;-67
2023/12/02 10:10:03;;;;;;;45.25;21.92;;;;;;;;;;5089265;28;20052;-67
2023/12/02 10:12:30;;;;;;;50.80;23.10;;;;;;;;;;5089689;28;20052;-67
2023/12/02 10:15:01;;;;;;;48.78;22.63;;;;;;;;;;5088416;28;20044;-67
2023/12/02 10:17:29;;;;;;;46.17;20.77;;;;;;;;;;5089269;28;20087;-67
2023/12/02 10:20:01;;;;;;;45.80;22.42;;;;;;;;;;5069158;28;20068;-67
2023/12/02 10:22:27;;;;;;;;;;;;;;;;;;5070059;28;20037;-67
2023/12/02 10:25:02;;;;;;;41.58;20.08;;;;;;;;;;5068961;28;20002;-67
2023/12/02 10:27:30;;;;;;;46.50;20.52;;;;;;;;;;5069122;28;20036;-67
2023/12/02 10:29:56;;;;;;;44.17;21.48;;;;;;;;;;5069428;28;20052;-67
2023/12/02 10:32:40;;;;;;;50.08;22.98;;;;;;;;;;5069103;28;20044;-67
2023/12/02 10:35:24;;;;;;;46.55;21.38;;;;;;;;;;5068095;28;20394;-67
2023/12/02 10:37:55;;;;;;;45.42;22.10;;;;;;;;;;5069197;28;20483;-67
2023/12/02 10:40:23;;;;;;;46.05;22.25;;;;;;;;;;5069911;28;20052;-67
2023/12/02 10:42:52;;;;;;;48.60;22.85;;;;;;;;;;5072948;28;20044;-67
2023/12/02 10:45:20;;;;;;;46.10;21.95;;;;;;;;;;5073411;28;20037;-67
2023/12/02 10:47:49;;;;;;;49.90;23.67;;;;;;;;;;5072982;28;20106;-67
2023/12/02 10:50:17;;;;;;;48.67;24.95;;;;;;;;;;5073043;28;20131;-67
2023/12/02 10:52:48;;;;;;;52.05;24.88;;;;;;;;;;5073403;28;20094;-67
2023/12/02 10:55:14;;;;;;;51.20;24.70;;;;;;;;;;5072577;28;20036;-67
2023/12/02 10:57:40;;;;;;;50.67;24.08;;;;;;;;;;5072431;28;20067;-67
2023/12/02 11:00:16;;;;;;;48.90;22.55;;;;;;;;;;5072940;28;20036;-67
2023/12/02 11:02:52;;;;;;;46.50;22.20;;;;;;;;;;5072170;28;20044;-67
2023/12/02 11:05:23;;;;;;;46.60;22.50;;;;;;;;;;5072586;28;20086;-67
2023/12/02 11:07:53;;;;;;;45.40;21.52;;;;;;;;;;5072296;28;20041;-67
2023/12/02 11:10:25;;;;;;;46.47;23.25;;;;;;;;;;5072284;28;20040;-67
2023/12/02 11:12:53;;;;;;;45.72;22.17;;;;;;;;;;5072669;28;20433;-67
2023/12/02 11:15:23;;;;;;;52.65;24.30;;;;;;;;;;5072899;28;20044;-67
2023/12/02 11:17:57;;;;;;;53.05;24.45;;;;;;;;;;5074853;28;20083;-67
2023/12/02 11:20:30;;;;;;;45.35;21.25;;;;;;;;;;5092783;28;20032;-67
2023/12/02 11:23:24;;;;;;;45.65;20.70;;;;;;;;;;5092576;28;20032;-67
2023/12/02 11:26:02;;;;;;;40.97;20.75;;;;;;;;;;5084726;28;20043;-67
2023/12/02 11:28:40;;;;;;;44.78;21.85;;;;;;;;;;5072215;28;20056;-67
2023/12/02 11:31:21;;;;;;;41.53;20.35;;;;;;;;;;5071973;28;20518;-67
2023/12/02 11:33:50;;;;;;;45.80;21.07;;;;;;;;;;5072276;28;20119;-67
2023/12/02 11:36:33;;;;;;;46.97;23.20;;;;;;;;;;5071856;28;20040;-67
2023/12/02 11:39:18;;;;;;;47.72;22.80;;;;;;;;;;5071727;28;20048;-67
2023/12/02 11:42:00;;;;;;;45.35;20.33;;;;;;;;;;5070864;28;20094;-67
2023/12/02 11:44:39;;;;;;;46.03;21.20;;;;;;;;;;5072179;28;20052;-67
2023/12/02 11:47:24;;;;;;;43.22;21.20;;;;;;;;;;5071523;28;20091;-67
2023/12/02 11:49:59;;;;;;;43.08;20.98;;;;;;;;;;5071718;28;20055;-67
2023/12/02 11:53:03;;;;;;;43.92;21.15;;;;;;;;;;5071710;28;20092;-67
2023/12/02 11:55:32;;;;;;;42.05;20.02;;;;;;;;;;5068572;28;20040;-67
2023/12/02 11:58:07;;;;;;;41.88;21.05;;;;;;;;;;5068526;28;20083;-67
2023/12/02 12:00:43;;;;;;;37.90;19.55;;;;;;;;;;5069972;28;20128;-67
2023/12/02 12:03:08;;;;;;;42.78;20.27;;;;;;;;;;5071703;28;20048;-67
2023/12/02 12:05:43;;;;;;;38.55;20.20;;;;;;;;;;5071537;28;20391;-67
2023/12/02 12:08:19;;;;;;;41.42;20.40;;;;;;;;;;5071225;28;20053;-67
2023/12/02 12:10:46;;;;;;;38.58;18.02;;;;;;;;;;5071588;28;20044;-67
2023/12/02 12:13:15;;;;;;;41.90;18.83;;;;;;;;;;5071843;28;20071;-67
2023/12/02 12:15:42;;;;;;;42.53;20.75;;;;;;;;;;5069923;28;20044;-67
2023/12/02 12:18:10;;;;;;;39.55;19.45;;;;;;;;;;5076711;28;20044;-67
2023/12/02 12:20:36;;;;;;;43.78;19.88;;;;;;;;;;5091556;28;20047;-67
2023/12/02 12:23:02;;;;;;;40.92;20.08;;;;;;;;;;5091196;28;20040;-67
2023/12/02 12:25:29;;;;;;;40.22;19.60;;;;;;;;;;5086734;28;20103;-67
2023/12/02 12:28:05;;;;;;;45.95;21.85;;;;;;;;;;5071211;28;20071;-67
2023/12/02 12:30:47;;;;;;;44.42;20.88;;;;;;;;;;5071040;28;20037;-67
2023/12/02 12:33:14;;;;;;;37.13;19.00;;;;;;;;;;5071137;28;20102;-67
2023/12/02 12:35:42;;;;;;;41.28;19.95;;;;;;;;;;5070966;28;20128;-67
2023/12/02 12:38:12;;;;;;;43.67;20.50;;;;;;;;;;5070370;28;20562;-67
2023/12/02 12:40:40;;;;;;;45.90;20.73;;;;;;;;;;5070844;28;20036;-67
2023/12/02 12:43:11;;;;;;;43.63;21.30;;;;;;;;;;5070735;28;20044;-67
2023/12/02 12:45:41;;;;;;;43.53;20.58;;;;;;;;;;5070337;28;20487;-67
2023/12/02 12:48:07;;;;;;;39.28;18.52;;;;;;;;;;5070669;28;20051;-67
2023/12/02 12:50:34;;;;;;;39.75;20.13;;;;;;;;;;5070629;28;20490;-67
2023/12/02 12:53:11;;;;;;;37.97;19.08;;;;;;;;;;5070377;28;20375;-67
2023/12/02 12:55:38;;;;;;;37.55;18.38;;;;;;;;;;5069353;28;20117;-67
2023/12/02 12:58:08;;;;;;;38.72;18.20;;;;;;;;;;5070101;28;20049;-67
2023/12/02 13:00:35;;;;;;;38.20;17.75;;;;;;;;;;5069826;28;20049;-67
2023/12/02 13:03:20;;;;;;;38.13;18.02;;;;;;;;;;5069805;28;20040;-67
2023/12/02 13:05:49;;;;;;;35.85;17.48;;;;;;;;;;5070615;28;20468;-67
2023/12/02 13:08:25;;;;;;;37.90;19.10;;;;;;;;;;5069968;28;20052;-67
2023/12/02 13:10:55;;;;;;;39.75;18.98;;;;;;;;;;5070536;28;20036;-67
2023/12/02 13:13:22;;;;;;;36.63;18.20;;;;;;;;;;5070390;28;20087;-67
2023/12/02 13:15:49;;;;;;;37.80;18.25;;;;;;;;;;5069668;28;20071;-67
2023/12/02 13:18:19;;;;;;;37.03;17.88;;;;;;;;;;5075053;28;20052;-67
2023/12/02 13:20:45;;;;;;;38.97;18.55;;;;;;;;;;5090144;28;20036;-67
2023/12/02 13:23:12;;;;;;;41.38;19.98;;;;;;;;;;5090318;28;20043;-67
2023/12/02 13:25:39;;;;;;;36.97;18.67;;;;;;;;;;5084223;28;20029;-67
2023/12/02 13:28:04;;;;;;;40.97;18.63;;;;;;;;;;5070054;28;20036;-67
2023/12/02 13:30:31;;;;;;;39.95;19.30;;;;;;;;;;5069661;28;20098;-67
2023/12/02 13:33:03;;;;;;;40.92;19.88;;;;;;;;;;5070410;28;20044;-67
2023/12/02 13:35:35;;;;;;;40.33;19.77;;;;;;;;;;5070113;28;20044;-67
2023/12/02 13:38:10;;;;;;;42.83;21.00;;;;;;;;;;5069360;28;20045;-67
2023/12/02 13:40:55;;;;;;;40.10;20.45;;;;;;;;;;5070232;28;20406;-67
2023/12/02 13:43:37;;;;;;;44.75;21.98;;;;;;;;;;5069740;28;20043;-67
2023/12/02 13:46:05;;;;;;;46.03;22.23;;;;;;;;;;5069491;28;20040;-67
2023/12/02 13:48:49;;;;;;;49.03;23.75;;;;;;;;;;5069822;28;20525;-67
2023/12/02 13:51:18;;;;;;;48.75;23.38;;;;;;;;;;5069687;28;20047;-67
2023/12/02 13:53:48;;;;;;;48.00;22.83;;;;;;;;;;5069504;28;20080;-67
2023/12/02 13:56:26;;;;;;;45.92;22.30;;;;;;;;;;5069420;28;20083;-67
2023/12/02 13:59:16;;;;;;;47.95;22.05;;;;;;;;;;5069918;28;20052;-67
2023/12/02 14:01:45;;;;;;;42.83;20.73;;;;;;;;;;5069629;28;20125;-67
2023/12/02 14:04:14;;;;;;;42.42;20.65;;;;;;;;;;5069340;28;20347;-67
2023/12/02 14:06:59;;;;;;;50.03;21.95;;;;;;;;;;5069141;28;20040;-67
2023/12/02 14:09:26;;;;;;;47.20;21.90;;;;;;;;;;5069604;28;20044;-67
2023/12/02 14:11:52;;;;;;;44.28;21.25;;;;;;;;;;5069384;28;20080;-67
2023/12/02 14:14:18;;;;;;;46.80;21.42;;;;;;;;;;5071521;28;20509;-67
2023/12/02 14:16:47;;;;;;;44.78;20.05;;;;;;;;;;5073738;28;20029;-67
2023/12/02 14:19:13;;;;;;;43.63;20.45;;;;;;;;;;5087942;28;20278;-67
2023/12/02 14:21:43;;;;;;;41.40;19.73;;;;;;;;;;5093417;28;20036;-67
2023/12/02 14:24:24;;;;;;;46.83;20.95;;;;;;;;;;5093775;28;20097;-67
2023/12/02 14:26:56;;;;;;;44.70;20.60;;;;;;;;;;5077720;28;20511;-67